sensor_id;sensor_type;location;lat;lon;timestamp;temperature;humidity
12967;DHT22;6548;49.996;8.238;2023-09-19T00:02:14;17.70;99.90
12967;DHT22;6548;49.996;8.238;2023-09-19T00:04:39;17.70;99.90
12967;DHT22;6548;49.996;8.238;2023-09-19T00:07:05;17.70;99.90
12967;DHT22;6548;49.996;8.238;2023-09-19T00:09:31;17.70;99.90
12967;DHT22;6548;49.996;8.238;2023-09-19T00:12:06;17.70;99.90
12967;DHT22;6548;49.996;8.238;2023-09-19T00:14:32;17.60;99.90
12967;DHT22;6548;49.996;8.238;2023-09-19T00:17:04;17.60;99.90
12967;DHT22;6548;49.996;8.238;2023-09-19T00:19:34;17.50;99.90
12967;DHT22;6548;49.996;8.238;2023-09-19T00:22:01;17.50;99.90
12967;DHT22;6548;49.996;8.238;2023-09-19T00:24:26;17.50;99.90
12967;DHT22;6548;49.996;8.238;2023-09-19T00:26:53;17.50;99.90
12967;DHT22;6548;49.996;8.238;2023-09-19T00:29:19;17.40;99.90
12967;DHT22;6548;49.996;8.238;2023-09-19T00:31:45;17.40;99.90
12967;DHT22;6548;49.996;8.238;2023-09-19T00:34:11;17.40;99.90
12967;DHT22;6548;49.996;8.238;2023-09-19T00:36:37;17.40;99.90
12967;DHT22;6548;49.996;8.238;2023-09-19T00:39:05;17.40;99.90
12967;DHT22;6548;49.996;8.238;2023-09-19T00:41:34;17.40;99.90
12967;DHT22;6548;49.996;8.238;2023-09-19T00:44:02;17.40;99.90
12967;DHT22;6548;49.996;8.238;2023-09-19T00:46:29;17.40;99.90
12967;DHT22;6548;49.996;8.238;2023-09-19T00:48:55;17.50;99.90
12967;DHT22;6548;49.996;8.238;2023-09-19T00:51:22;17.50;99.90
12967;DHT22;6548;49.996;8.238;2023-09-19T00:53:48;17.50;99.90
12967;DHT22;6548;49.996;8.238;2023-09-19T00:56:15;17.40;99.90
12967;DHT22;6548;49.996;8.238;2023-09-19T00:58:44;17.50;99.90
12967;DHT22;6548;49.996;8.238;2023-09-19T01:01:10;17.50;99.90
12967;DHT22;6548;49.996;8.238;2023-09-19T01:03:37;17.50;99.90
12967;DHT22;6548;49.996;8.238;2023-09-19T01:06:03;17.50;99.90
12967;DHT22;6548;49.996;8.238;2023-09-19T01:08:28;17.50;99.90
12967;DHT22;6548;49.996;8.238;2023-09-19T01:11:09;17.30;99.90
12967;DHT22;6548;49.996;8.238;2023-09-19T01:13:55;17.30;99.90
12967;DHT22;6548;49.996;8.238;2023-09-19T01:16:51;17.30;99.90
12967;DHT22;6548;49.996;8.238;2023-09-19T01:28:34;17.10;99.90
12967;DHT22;6548;49.996;8.238;2023-09-19T01:31:04;16.90;99.90
12967;DHT22;6548;49.996;8.238;2023-09-19T01:33:53;17.00;99.90
12967;DHT22;6548;49.996;8.238;2023-09-19T01:36:30;17.00;99.90
12967;DHT22;6548;49.996;8.238;2023-09-19T01:38:57;17.00;99.90
12967;DHT22;6548;49.996;8.238;2023-09-19T01:41:56;17.10;99.90
12967;DHT22;6548;49.996;8.238;2023-09-19T01:44:36;17.00;99.90
12967;DHT22;6548;49.996;8.238;2023-09-19T01:47:13;17.10;99.90
12967;DHT22;6548;49.996;8.238;2023-09-19T01:49:56;17.10;99.90
12967;DHT22;6548;49.996;8.238;2023-09-19T01:52:29;17.20;99.90
12967;DHT22;6548;49.996;8.238;2023-09-19T01:55:08;17.10;99.90
12967;DHT22;6548;49.996;8.238;2023-09-19T01:57:42;17.10;99.90
12967;DHT22;6548;49.996;8.238;2023-09-19T02:00:12;17.20;99.90
12967;DHT22;6548;49.996;8.238;2023-09-19T02:02:39;17.20;99.90
12967;DHT22;6548;49.996;8.238;2023-09-19T02:05:05;17.20;99.90
12967;DHT22;6548;49.996;8.238;2023-09-19T02:07:31;17.20;99.90
12967;DHT22;6548;49.996;8.238;2023-09-19T02:10:00;17.10;99.90
12967;DHT22;6548;49.996;8.238;2023-09-19T02:12:26;17.10;99.90
12967;DHT22;6548;49.996;8.238;2023-09-19T02:14:52;17.00;99.90
12967;DHT22;6548;49.996;8.238;2023-09-19T02:17:18;17.00;99.90
12967;DHT22;6548;49.996;8.238;2023-09-19T02:19:44;17.00;99.90
12967;DHT22;6548;49.996;8.238;2023-09-19T02:22:10;17.00;99.90
12967;DHT22;6548;49.996;8.238;2023-09-19T02:24:39;17.00;99.90
12967;DHT22;6548;49.996;8.238;2023-09-19T02:27:05;17.00;99.90
12967;DHT22;6548;49.996;8.238;2023-09-19T02:29:31;17.00;99.90
12967;DHT22;6548;49.996;8.238;2023-09-19T02:31:56;17.00;99.90
12967;DHT22;6548;49.996;8.238;2023-09-19T02:34:22;16.90;99.90
12967;DHT22;6548;49.996;8.238;2023-09-19T02:36:48;16.90;99.90
12967;DHT22;6548;49.996;8.238;2023-09-19T02:39:14;16.80;99.90
12967;DHT22;6548;49.996;8.238;2023-09-19T02:41:39;16.80;99.90
12967;DHT22;6548;49.996;8.238;2023-09-19T02:44:07;16.80;99.90
12967;DHT22;6548;49.996;8.238;2023-09-19T02:46:33;16.80;99.90
12967;DHT22;6548;49.996;8.238;2023-09-19T02:48:59;16.70;99.90
12967;DHT22;6548;49.996;8.238;2023-09-19T02:51:24;16.70;99.90
12967;DHT22;6548;49.996;8.238;2023-09-19T02:53:50;16.70;99.90
12967;DHT22;6548;49.996;8.238;2023-09-19T02:56:18;16.70;99.90
12967;DHT22;6548;49.996;8.238;2023-09-19T02:58:44;16.60;99.90
12967;DHT22;6548;49.996;8.238;2023-09-19T03:01:10;16.60;99.90
12967;DHT22;6548;49.996;8.238;2023-09-19T03:03:38;16.60;99.90
12967;DHT22;6548;49.996;8.238;2023-09-19T03:06:08;16.60;99.90
12967;DHT22;6548;49.996;8.238;2023-09-19T03:08:35;16.60;99.90
12967;DHT22;6548;49.996;8.238;2023-09-19T03:11:03;16.50;99.90
12967;DHT22;6548;49.996;8.238;2023-09-19T03:13:30;16.50;99.90
12967;DHT22;6548;49.996;8.238;2023-09-19T03:15:56;16.40;99.90
12967;DHT22;6548;49.996;8.238;2023-09-19T03:18:24;16.30;99.90
12967;DHT22;6548;49.996;8.238;2023-09-19T03:20:55;16.30;99.90
12967;DHT22;6548;49.996;8.238;2023-09-19T03:23:21;16.30;99.90
12967;DHT22;6548;49.996;8.238;2023-09-19T03:25:47;16.30;99.90
12967;DHT22;6548;49.996;8.238;2023-09-19T03:28:13;16.30;99.90
12967;DHT22;6548;49.996;8.238;2023-09-19T03:30:40;16.30;99.90
12967;DHT22;6548;49.996;8.238;2023-09-19T03:33:07;16.30;99.90
12967;DHT22;6548;49.996;8.238;2023-09-19T03:35:33;16.20;99.90
12967;DHT22;6548;49.996;8.238;2023-09-19T03:38:00;16.20;99.90
12967;DHT22;6548;49.996;8.238;2023-09-19T03:40:25;16.20;99.90
12967;DHT22;6548;49.996;8.238;2023-09-19T03:42:51;16.20;99.90
12967;DHT22;6548;49.996;8.238;2023-09-19T03:45:16;16.20;99.90
12967;DHT22;6548;49.996;8.238;2023-09-19T03:47:43;16.20;99.90
12967;DHT22;6548;49.996;8.238;2023-09-19T03:50:09;16.20;99.90
12967;DHT22;6548;49.996;8.238;2023-09-19T03:52:36;16.20;99.90
12967;DHT22;6548;49.996;8.238;2023-09-19T03:55:02;16.20;99.90
12967;DHT22;6548;49.996;8.238;2023-09-19T03:57:31;16.20;99.90
12967;DHT22;6548;49.996;8.238;2023-09-19T03:59:56;16.20;99.90
12967;DHT22;6548;49.996;8.238;2023-09-19T04:02:22;16.20;99.90
12967;DHT22;6548;49.996;8.238;2023-09-19T04:04:49;16.20;99.90
12967;DHT22;6548;49.996;8.238;2023-09-19T04:07:15;16.10;99.90
12967;DHT22;6548;49.996;8.238;2023-09-19T04:09:41;16.10;99.90
12967;DHT22;6548;49.996;8.238;2023-09-19T04:12:07;16.10;99.90
12967;DHT22;6548;49.996;8.238;2023-09-19T04:14:36;16.10;99.90
12967;DHT22;6548;49.996;8.238;2023-09-19T04:17:02;16.10;99.90
12967;DHT22;6548;49.996;8.238;2023-09-19T04:19:28;16.10;99.90
12967;DHT22;6548;49.996;8.238;2023-09-19T04:21:54;16.10;99.90
12967;DHT22;6548;49.996;8.238;2023-09-19T04:24:19;16.00;99.90
12967;DHT22;6548;49.996;8.238;2023-09-19T04:26:45;16.10;99.90
12967;DHT22;6548;49.996;8.238;2023-09-19T04:29:11;16.00;99.90
12967;DHT22;6548;49.996;8.238;2023-09-19T04:31:39;16.00;99.90
12967;DHT22;6548;49.996;8.238;2023-09-19T04:34:08;16.00;99.90
12967;DHT22;6548;49.996;8.238;2023-09-19T04:36:34;16.00;99.90
12967;DHT22;6548;49.996;8.238;2023-09-19T04:39:02;16.00;99.90
12967;DHT22;6548;49.996;8.238;2023-09-19T04:41:30;16.00;99.90
12967;DHT22;6548;49.996;8.238;2023-09-19T04:43:56;16.00;99.90
12967;DHT22;6548;49.996;8.238;2023-09-19T04:46:21;16.00;99.90
12967;DHT22;6548;49.996;8.238;2023-09-19T04:48:47;16.00;99.90
12967;DHT22;6548;49.996;8.238;2023-09-19T04:51:12;16.00;99.90
12967;DHT22;6548;49.996;8.238;2023-09-19T04:53:39;16.00;99.90
12967;DHT22;6548;49.996;8.238;2023-09-19T04:56:04;15.90;99.90
12967;DHT22;6548;49.996;8.238;2023-09-19T04:58:33;15.90;99.90
12967;DHT22;6548;49.996;8.238;2023-09-19T05:00:59;15.90;99.90
12967;DHT22;6548;49.996;8.238;2023-09-19T05:03:24;15.90;99.90
12967;DHT22;6548;49.996;8.238;2023-09-19T05:05:50;15.90;99.90
12967;DHT22;6548;49.996;8.238;2023-09-19T05:08:15;15.80;99.90
12967;DHT22;6548;49.996;8.238;2023-09-19T05:10:41;15.80;99.90
12967;DHT22;6548;49.996;8.238;2023-09-19T05:13:07;15.70;99.90
12967;DHT22;6548;49.996;8.238;2023-09-19T05:15:35;15.70;99.90
12967;DHT22;6548;49.996;8.238;2023-09-19T05:18:01;15.70;99.90
12967;DHT22;6548;49.996;8.238;2023-09-19T05:20:26;15.70;99.90
12967;DHT22;6548;49.996;8.238;2023-09-19T05:23:13;15.80;99.90
12967;DHT22;6548;49.996;8.238;2023-09-19T05:25:39;15.80;99.90
12967;DHT22;6548;49.996;8.238;2023-09-19T05:28:06;15.70;99.90
12967;DHT22;6548;49.996;8.238;2023-09-19T05:30:32;15.70;99.90
12967;DHT22;6548;49.996;8.238;2023-09-19T05:32:58;15.70;99.90
12967;DHT22;6548;49.996;8.238;2023-09-19T05:35:25;15.70;99.90
12967;DHT22;6548;49.996;8.238;2023-09-19T05:37:52;15.70;99.90
12967;DHT22;6548;49.996;8.238;2023-09-19T05:40:18;15.70;99.90
12967;DHT22;6548;49.996;8.238;2023-09-19T05:42:44;15.70;99.90
12967;DHT22;6548;49.996;8.238;2023-09-19T05:45:10;15.70;99.90
12967;DHT22;6548;49.996;8.238;2023-09-19T05:47:40;15.70;99.90
12967;DHT22;6548;49.996;8.238;2023-09-19T05:50:07;15.70;99.90
12967;DHT22;6548;49.996;8.238;2023-09-19T05:52:34;15.80;99.90
12967;DHT22;6548;49.996;8.238;2023-09-19T05:55:00;15.80;99.90
12967;DHT22;6548;49.996;8.238;2023-09-19T05:57:25;15.80;99.90
12967;DHT22;6548;49.996;8.238;2023-09-19T05:59:51;15.90;99.90
12967;DHT22;6548;49.996;8.238;2023-09-19T06:02:17;15.90;99.90
12967;DHT22;6548;49.996;8.238;2023-09-19T06:04:45;16.00;99.90
12967;DHT22;6548;49.996;8.238;2023-09-19T06:07:10;16.00;99.90
12967;DHT22;6548;49.996;8.238;2023-09-19T06:09:36;16.20;99.90
12967;DHT22;6548;49.996;8.238;2023-09-19T06:12:02;16.20;99.90
12967;DHT22;6548;49.996;8.238;2023-09-19T06:14:29;16.30;99.90
12967;DHT22;6548;49.996;8.238;2023-09-19T06:16:54;16.40;99.90
12967;DHT22;6548;49.996;8.238;2023-09-19T06:19:20;16.30;99.90
12967;DHT22;6548;49.996;8.238;2023-09-19T06:21:48;16.30;99.90
12967;DHT22;6548;49.996;8.238;2023-09-19T06:24:14;16.30;99.90
12967;DHT22;6548;49.996;8.238;2023-09-19T06:26:40;16.30;99.90
12967;DHT22;6548;49.996;8.238;2023-09-19T06:29:05;16.40;99.90
12967;DHT22;6548;49.996;8.238;2023-09-19T06:31:33;16.40;99.90
12967;DHT22;6548;49.996;8.238;2023-09-19T06:33:58;16.50;99.90
12967;DHT22;6548;49.996;8.238;2023-09-19T06:36:24;16.50;99.90
12967;DHT22;6548;49.996;8.238;2023-09-19T06:38:50;16.50;99.90
12967;DHT22;6548;49.996;8.238;2023-09-19T06:41:19;16.40;99.90
12967;DHT22;6548;49.996;8.238;2023-09-19T06:43:45;16.50;99.90
12967;DHT22;6548;49.996;8.238;2023-09-19T06:46:10;16.50;99.90
12967;DHT22;6548;49.996;8.238;2023-09-19T06:48:38;16.60;99.90
12967;DHT22;6548;49.996;8.238;2023-09-19T06:51:03;16.50;99.90
12967;DHT22;6548;49.996;8.238;2023-09-19T06:53:34;16.60;99.90
12967;DHT22;6548;49.996;8.238;2023-09-19T06:56:01;16.70;99.90
12967;DHT22;6548;49.996;8.238;2023-09-19T06:58:27;16.60;99.90
12967;DHT22;6548;49.996;8.238;2023-09-19T07:00:52;16.60;99.90
12967;DHT22;6548;49.996;8.238;2023-09-19T07:03:19;16.70;99.90
12967;DHT22;6548;49.996;8.238;2023-09-19T07:05:47;16.80;99.90
12967;DHT22;6548;49.996;8.238;2023-09-19T07:08:13;16.80;99.90
12967;DHT22;6548;49.996;8.238;2023-09-19T07:10:40;16.80;99.90
12967;DHT22;6548;49.996;8.238;2023-09-19T07:13:15;16.80;99.90
12967;DHT22;6548;49.996;8.238;2023-09-19T07:15:43;16.80;99.90
12967;DHT22;6548;49.996;8.238;2023-09-19T07:18:16;16.80;99.90
12967;DHT22;6548;49.996;8.238;2023-09-19T07:20:43;16.90;99.90
12967;DHT22;6548;49.996;8.238;2023-09-19T07:23:19;16.90;99.90
12967;DHT22;6548;49.996;8.238;2023-09-19T07:25:46;17.00;99.90
12967;DHT22;6548;49.996;8.238;2023-09-19T07:28:12;17.10;99.90
12967;DHT22;6548;49.996;8.238;2023-09-19T07:30:38;17.20;99.90
12967;DHT22;6548;49.996;8.238;2023-09-19T07:33:04;17.20;99.90
12967;DHT22;6548;49.996;8.238;2023-09-19T07:35:30;17.30;99.90
12967;DHT22;6548;49.996;8.238;2023-09-19T07:37:56;17.30;99.90
12967;DHT22;6548;49.996;8.238;2023-09-19T07:40:24;17.40;99.90
12967;DHT22;6548;49.996;8.238;2023-09-19T07:42:52;17.50;99.90
12967;DHT22;6548;49.996;8.238;2023-09-19T07:45:18;17.60;99.90
12967;DHT22;6548;49.996;8.238;2023-09-19T07:47:49;17.60;99.90
12967;DHT22;6548;49.996;8.238;2023-09-19T07:50:18;17.60;99.90
12967;DHT22;6548;49.996;8.238;2023-09-19T07:52:45;17.40;99.90
12967;DHT22;6548;49.996;8.238;2023-09-19T07:55:10;17.60;99.90
12967;DHT22;6548;49.996;8.238;2023-09-19T07:57:42;17.60;99.90
12967;DHT22;6548;49.996;8.238;2023-09-19T08:00:08;17.70;99.90
12967;DHT22;6548;49.996;8.238;2023-09-19T08:02:36;17.80;99.90
12967;DHT22;6548;49.996;8.238;2023-09-19T08:05:03;17.90;99.90
12967;DHT22;6548;49.996;8.238;2023-09-19T08:07:32;17.90;99.90
12967;DHT22;6548;49.996;8.238;2023-09-19T08:09:57;18.00;99.90
12967;DHT22;6548;49.996;8.238;2023-09-19T08:12:24;18.10;99.90
12967;DHT22;6548;49.996;8.238;2023-09-19T08:14:49;18.30;99.90
12967;DHT22;6548;49.996;8.238;2023-09-19T08:17:16;18.30;99.90
12967;DHT22;6548;49.996;8.238;2023-09-19T08:19:41;18.20;99.90
12967;DHT22;6548;49.996;8.238;2023-09-19T08:22:10;18.50;99.90
12967;DHT22;6548;49.996;8.238;2023-09-19T08:24:36;18.60;99.90
12967;DHT22;6548;49.996;8.238;2023-09-19T08:27:04;18.80;99.90
12967;DHT22;6548;49.996;8.238;2023-09-19T08:29:31;19.00;99.90
12967;DHT22;6548;49.996;8.238;2023-09-19T08:31:57;18.70;99.90
12967;DHT22;6548;49.996;8.238;2023-09-19T08:34:24;18.70;99.90
12967;DHT22;6548;49.996;8.238;2023-09-19T08:36:54;18.70;99.90
12967;DHT22;6548;49.996;8.238;2023-09-19T08:39:24;18.90;99.90
12967;DHT22;6548;49.996;8.238;2023-09-19T08:41:49;19.10;99.90
12967;DHT22;6548;49.996;8.238;2023-09-19T08:44:15;19.20;99.90
12967;DHT22;6548;49.996;8.238;2023-09-19T08:46:41;19.30;99.90
12967;DHT22;6548;49.996;8.238;2023-09-19T08:49:16;19.30;99.90
12967;DHT22;6548;49.996;8.238;2023-09-19T08:51:49;19.20;99.90
12967;DHT22;6548;49.996;8.238;2023-09-19T08:54:23;19.40;99.90
12967;DHT22;6548;49.996;8.238;2023-09-19T08:56:53;19.60;99.90
12967;DHT22;6548;49.996;8.238;2023-09-19T08:59:22;19.50;99.90
12967;DHT22;6548;49.996;8.238;2023-09-19T09:01:53;19.70;99.90
12967;DHT22;6548;49.996;8.238;2023-09-19T09:04:19;19.90;99.90
12967;DHT22;6548;49.996;8.238;2023-09-19T09:06:46;19.80;99.90
12967;DHT22;6548;49.996;8.238;2023-09-19T09:09:15;20.00;99.90
12967;DHT22;6548;49.996;8.238;2023-09-19T09:11:41;20.10;99.90
12967;DHT22;6548;49.996;8.238;2023-09-19T09:14:09;20.20;99.90
12967;DHT22;6548;49.996;8.238;2023-09-19T09:16:36;20.30;99.90
12967;DHT22;6548;49.996;8.238;2023-09-19T09:19:02;20.50;99.90
12967;DHT22;6548;49.996;8.238;2023-09-19T09:21:28;20.60;99.90
12967;DHT22;6548;49.996;8.238;2023-09-19T09:23:54;20.90;99.90
12967;DHT22;6548;49.996;8.238;2023-09-19T09:29:04;21.20;99.90
12967;DHT22;6548;49.996;8.238;2023-09-19T09:31:30;21.20;99.90
12967;DHT22;6548;49.996;8.238;2023-09-19T09:33:56;20.60;99.90
12967;DHT22;6548;49.996;8.238;2023-09-19T09:36:37;20.50;99.90
12967;DHT22;6548;49.996;8.238;2023-09-19T09:39:03;20.50;99.90
12967;DHT22;6548;49.996;8.238;2023-09-19T09:41:41;21.00;99.90
12967;DHT22;6548;49.996;8.238;2023-09-19T09:44:17;21.40;99.90
12967;DHT22;6548;49.996;8.238;2023-09-19T09:46:45;21.80;99.90
12967;DHT22;6548;49.996;8.238;2023-09-19T09:49:23;22.10;99.90
12967;DHT22;6548;49.996;8.238;2023-09-19T09:52:03;22.50;99.90
12967;DHT22;6548;49.996;8.238;2023-09-19T09:54:33;22.60;99.90
12967;DHT22;6548;49.996;8.238;2023-09-19T09:57:06;22.60;99.90
12967;DHT22;6548;49.996;8.238;2023-09-19T09:59:53;23.10;99.90
12967;DHT22;6548;49.996;8.238;2023-09-19T10:02:27;23.90;99.90
12967;DHT22;6548;49.996;8.238;2023-09-19T10:05:18;25.70;99.90
12967;DHT22;6548;49.996;8.238;2023-09-19T10:07:50;25.60;99.90
12967;DHT22;6548;49.996;8.238;2023-09-19T10:10:33;25.60;99.90
12967;DHT22;6548;49.996;8.238;2023-09-19T10:13:10;26.10;99.90
12967;DHT22;6548;49.996;8.238;2023-09-19T10:15:50;27.40;99.90
12967;DHT22;6548;49.996;8.238;2023-09-19T10:18:21;28.50;98.40
12967;DHT22;6548;49.996;8.238;2023-09-19T10:20:47;27.80;94.70
12967;DHT22;6548;49.996;8.238;2023-09-19T10:23:15;25.70;96.60
12967;DHT22;6548;49.996;8.238;2023-09-19T10:25:48;26.10;96.40
12967;DHT22;6548;49.996;8.238;2023-09-19T10:28:15;26.50;95.30
12967;DHT22;6548;49.996;8.238;2023-09-19T10:30:42;28.80;94.40
12967;DHT22;6548;49.996;8.238;2023-09-19T10:33:13;30.80;88.30
12967;DHT22;6548;49.996;8.238;2023-09-19T10:35:42;32.40;80.30
12967;DHT22;6548;49.996;8.238;2023-09-19T10:38:10;32.30;73.30
12967;DHT22;6548;49.996;8.238;2023-09-19T10:40:37;31.90;70.90
12967;DHT22;6548;49.996;8.238;2023-09-19T10:43:06;32.90;67.80
12967;DHT22;6548;49.996;8.238;2023-09-19T10:45:33;32.90;66.30
12967;DHT22;6548;49.996;8.238;2023-09-19T10:47:59;34.10;65.10
12967;DHT22;6548;49.996;8.238;2023-09-19T10:50:28;35.60;60.20
12967;DHT22;6548;49.996;8.238;2023-09-19T10:52:56;34.20;58.40
12967;DHT22;6548;49.996;8.238;2023-09-19T10:55:31;32.00;60.80
12967;DHT22;6548;49.996;8.238;2023-09-19T10:57:57;31.90;61.30
12967;DHT22;6548;49.996;8.238;2023-09-19T11:00:59;30.90;61.20
12967;DHT22;6548;49.996;8.238;2023-09-19T11:03:35;29.80;64.40
12967;DHT22;6548;49.996;8.238;2023-09-19T11:06:17;27.80;68.90
12967;DHT22;6548;49.996;8.238;2023-09-19T11:11:41;23.70;79.30
12967;DHT22;6548;49.996;8.238;2023-09-19T11:30:44;22.80;90.40
12967;DHT22;6548;49.996;8.238;2023-09-19T11:33:20;23.50;90.70
12967;DHT22;6548;49.996;8.238;2023-09-19T11:36:09;23.50;90.00
12967;DHT22;6548;49.996;8.238;2023-09-19T11:46:32;22.10;92.70
12967;DHT22;6548;49.996;8.238;2023-09-19T11:49:08;21.80;92.00
12967;DHT22;6548;49.996;8.238;2023-09-19T11:51:40;21.70;93.30
12967;DHT22;6548;49.996;8.238;2023-09-19T11:54:10;21.70;93.10
12967;DHT22;6548;49.996;8.238;2023-09-19T11:56:49;21.70;92.90
12967;DHT22;6548;49.996;8.238;2023-09-19T11:59:22;21.40;94.10
12967;DHT22;6548;49.996;8.238;2023-09-19T12:02:03;21.50;94.80
12967;DHT22;6548;49.996;8.238;2023-09-19T12:04:34;21.50;94.00
12967;DHT22;6548;49.996;8.238;2023-09-19T12:07:04;21.60;95.70
12967;DHT22;6548;49.996;8.238;2023-09-19T12:09:30;21.70;94.50
12967;DHT22;6548;49.996;8.238;2023-09-19T12:11:55;21.90;96.20
12967;DHT22;6548;49.996;8.238;2023-09-19T12:14:23;22.10;97.50
12967;DHT22;6548;49.996;8.238;2023-09-19T12:16:55;22.10;97.00
12967;DHT22;6548;49.996;8.238;2023-09-19T12:19:22;22.10;94.30
12967;DHT22;6548;49.996;8.238;2023-09-19T12:21:58;21.90;94.60
12967;DHT22;6548;49.996;8.238;2023-09-19T12:24:27;21.90;94.40
12967;DHT22;6548;49.996;8.238;2023-09-19T12:26:59;21.90;94.50
12967;DHT22;6548;49.996;8.238;2023-09-19T12:29:27;21.90;93.50
12967;DHT22;6548;49.996;8.238;2023-09-19T12:31:57;21.90;94.50
12967;DHT22;6548;49.996;8.238;2023-09-19T12:34:27;22.30;94.70
12967;DHT22;6548;49.996;8.238;2023-09-19T12:37:12;22.50;95.00
12967;DHT22;6548;49.996;8.238;2023-09-19T12:39:39;22.50;93.20
12967;DHT22;6548;49.996;8.238;2023-09-19T12:42:10;22.90;92.60
12967;DHT22;6548;49.996;8.238;2023-09-19T12:44:37;23.20;92.90
12967;DHT22;6548;49.996;8.238;2023-09-19T12:47:11;23.40;92.30
12967;DHT22;6548;49.996;8.238;2023-09-19T12:49:52;23.40;91.60
12967;DHT22;6548;49.996;8.238;2023-09-19T12:52:22;23.00;92.20
12967;DHT22;6548;49.996;8.238;2023-09-19T12:54:51;22.80;92.10
12967;DHT22;6548;49.996;8.238;2023-09-19T12:57:24;23.30;92.70
12967;DHT22;6548;49.996;8.238;2023-09-19T12:59:52;23.40;91.50
12967;DHT22;6548;49.996;8.238;2023-09-19T13:02:18;23.50;91.60
12967;DHT22;6548;49.996;8.238;2023-09-19T13:04:53;24.00;91.00
12967;DHT22;6548;49.996;8.238;2023-09-19T13:07:44;25.10;87.80
12967;DHT22;6548;49.996;8.238;2023-09-19T13:10:14;25.50;87.20
12967;DHT22;6548;49.996;8.238;2023-09-19T13:12:43;25.70;85.20
12967;DHT22;6548;49.996;8.238;2023-09-19T13:15:14;25.50;85.60
12967;DHT22;6548;49.996;8.238;2023-09-19T13:17:47;24.90;86.10
12967;DHT22;6548;49.996;8.238;2023-09-19T13:20:26;23.90;87.40
12967;DHT22;6548;49.996;8.238;2023-09-19T13:22:57;23.40;89.90
12967;DHT22;6548;49.996;8.238;2023-09-19T13:25:31;22.90;90.60
12967;DHT22;6548;49.996;8.238;2023-09-19T13:27:58;23.00;91.40
12967;DHT22;6548;49.996;8.238;2023-09-19T13:30:26;23.50;91.50
12967;DHT22;6548;49.996;8.238;2023-09-19T13:32:53;23.70;90.40
12967;DHT22;6548;49.996;8.238;2023-09-19T13:35:29;23.70;90.30
12967;DHT22;6548;49.996;8.238;2023-09-19T13:37:56;23.10;91.10
12967;DHT22;6548;49.996;8.238;2023-09-19T13:40:22;22.70;91.40
12967;DHT22;6548;49.996;8.238;2023-09-19T13:42:47;22.50;92.10
12967;DHT22;6548;49.996;8.238;2023-09-19T13:45:13;22.10;92.20
12967;DHT22;6548;49.996;8.238;2023-09-19T13:47:42;22.00;92.40
12967;DHT22;6548;49.996;8.238;2023-09-19T13:50:08;22.20;93.40
12967;DHT22;6548;49.996;8.238;2023-09-19T13:52:34;22.60;92.90
12967;DHT22;6548;49.996;8.238;2023-09-19T13:55:00;23.00;91.90
12967;DHT22;6548;49.996;8.238;2023-09-19T13:57:26;23.40;91.70
12967;DHT22;6548;49.996;8.238;2023-09-19T13:59:53;23.00;90.80
12967;DHT22;6548;49.996;8.238;2023-09-19T14:02:22;23.00;91.00
12967;DHT22;6548;49.996;8.238;2023-09-19T14:04:53;22.70;91.00
12967;DHT22;6548;49.996;8.238;2023-09-19T14:07:19;22.50;91.20
12967;DHT22;6548;49.996;8.238;2023-09-19T14:09:45;22.40;91.80
12967;DHT22;6548;49.996;8.238;2023-09-19T14:12:11;22.60;91.40
12967;DHT22;6548;49.996;8.238;2023-09-19T14:14:37;23.30;91.30
12967;DHT22;6548;49.996;8.238;2023-09-19T14:17:04;23.70;91.20
12967;DHT22;6548;49.996;8.238;2023-09-19T14:19:30;23.70;90.80
12967;DHT22;6548;49.996;8.238;2023-09-19T14:21:55;23.30;91.40
12967;DHT22;6548;49.996;8.238;2023-09-19T14:24:21;23.20;91.70
12967;DHT22;6548;49.996;8.238;2023-09-19T14:26:47;22.80;91.70
12967;DHT22;6548;49.996;8.238;2023-09-19T14:29:14;22.80;91.70
12967;DHT22;6548;49.996;8.238;2023-09-19T14:31:41;22.60;92.40
12967;DHT22;6548;49.996;8.238;2023-09-19T14:34:07;22.40;92.00
12967;DHT22;6548;49.996;8.238;2023-09-19T14:36:35;22.30;93.00
12967;DHT22;6548;49.996;8.238;2023-09-19T14:39:00;22.20;93.80
12967;DHT22;6548;49.996;8.238;2023-09-19T14:41:26;22.30;93.50
12967;DHT22;6548;49.996;8.238;2023-09-19T14:43:52;22.20;94.10
12967;DHT22;6548;49.996;8.238;2023-09-19T14:46:18;22.10;94.50
12967;DHT22;6548;49.996;8.238;2023-09-19T14:48:44;22.00;94.80
12967;DHT22;6548;49.996;8.238;2023-09-19T14:51:13;22.50;94.70
12967;DHT22;6548;49.996;8.238;2023-09-19T14:53:40;23.10;94.10
12967;DHT22;6548;49.996;8.238;2023-09-19T14:56:08;23.70;93.30
12967;DHT22;6548;49.996;8.238;2023-09-19T14:58:34;23.70;93.80
12967;DHT22;6548;49.996;8.238;2023-09-19T15:01:07;24.60;92.50
12967;DHT22;6548;49.996;8.238;2023-09-19T15:03:34;25.00;91.60
12967;DHT22;6548;49.996;8.238;2023-09-19T15:06:05;25.20;91.20
12967;DHT22;6548;49.996;8.238;2023-09-19T15:08:31;25.00;90.90
12967;DHT22;6548;49.996;8.238;2023-09-19T15:10:59;24.90;90.90
12967;DHT22;6548;49.996;8.238;2023-09-19T15:13:29;24.20;91.10
12967;DHT22;6548;49.996;8.238;2023-09-19T15:16:03;23.80;92.70
12967;DHT22;6548;49.996;8.238;2023-09-19T15:18:29;23.90;92.80
12967;DHT22;6548;49.996;8.238;2023-09-19T15:20:56;24.30;92.50
12967;DHT22;6548;49.996;8.238;2023-09-19T15:23:22;25.20;90.80
12967;DHT22;6548;49.996;8.238;2023-09-19T15:25:48;25.30;90.70
12967;DHT22;6548;49.996;8.238;2023-09-19T15:28:14;24.90;90.60
12967;DHT22;6548;49.996;8.238;2023-09-19T15:30:40;24.50;92.30
12967;DHT22;6548;49.996;8.238;2023-09-19T15:33:06;24.10;92.50
12967;DHT22;6548;49.996;8.238;2023-09-19T15:35:31;23.80;92.50
12967;DHT22;6548;49.996;8.238;2023-09-19T15:37:57;23.00;93.90
12967;DHT22;6548;49.996;8.238;2023-09-19T15:40:25;22.40;95.50
12967;DHT22;6548;49.996;8.238;2023-09-19T15:42:50;22.30;96.60
12967;DHT22;6548;49.996;8.238;2023-09-19T15:45:16;22.20;97.50
12967;DHT22;6548;49.996;8.238;2023-09-19T15:47:44;22.10;98.00
12967;DHT22;6548;49.996;8.238;2023-09-19T15:50:10;22.00;98.50
12967;DHT22;6548;49.996;8.238;2023-09-19T15:52:35;21.90;99.20
12967;DHT22;6548;49.996;8.238;2023-09-19T15:55:03;21.90;99.10
12967;DHT22;6548;49.996;8.238;2023-09-19T15:57:29;22.00;99.30
12967;DHT22;6548;49.996;8.238;2023-09-19T15:59:56;21.90;99.90
12967;DHT22;6548;49.996;8.238;2023-09-19T16:02:22;21.70;99.90
12967;DHT22;6548;49.996;8.238;2023-09-19T16:04:48;21.70;99.90
12967;DHT22;6548;49.996;8.238;2023-09-19T16:07:13;21.70;99.90
12967;DHT22;6548;49.996;8.238;2023-09-19T16:09:40;21.60;99.90
12967;DHT22;6548;49.996;8.238;2023-09-19T16:12:06;21.60;99.90
12967;DHT22;6548;49.996;8.238;2023-09-19T16:14:32;21.60;99.90
12967;DHT22;6548;49.996;8.238;2023-09-19T16:16:57;21.50;99.90
12967;DHT22;6548;49.996;8.238;2023-09-19T16:19:23;21.60;99.90
12967;DHT22;6548;49.996;8.238;2023-09-19T16:21:49;21.60;99.90
12967;DHT22;6548;49.996;8.238;2023-09-19T16:24:14;21.60;99.90
12967;DHT22;6548;49.996;8.238;2023-09-19T16:26:42;21.60;99.90
12967;DHT22;6548;49.996;8.238;2023-09-19T16:29:07;21.50;99.90
12967;DHT22;6548;49.996;8.238;2023-09-19T16:31:35;21.50;99.90
12967;DHT22;6548;49.996;8.238;2023-09-19T16:34:00;21.40;99.90